createdAt,value
2023-04-10T00:00:00.196Z,74.4
2023-04-10T00:05:00.152Z,74.2
2023-04-10T00:10:00.143Z,74.1
2023-04-10T00:15:00.209Z,75
2023-04-10T00:20:00.170Z,75.8
2023-04-10T00:25:00.115Z,77
2023-04-10T00:30:00.114Z,77.3
2023-04-10T00:35:00.130Z,77.7
2023-04-10T00:40:00.118Z,77.6
2023-04-10T00:45:00.132Z,76.7
2023-04-10T00:50:00.155Z,77
2023-04-10T00:55:00.151Z,77.4
2023-04-10T01:00:00.179Z,77.2
2023-04-10T01:05:00.146Z,77.2
2023-04-10T01:10:00.175Z,77.2
2023-04-10T01:15:00.180Z,79.3
2023-04-10T01:20:00.142Z,79.5
2023-04-10T01:25:00.141Z,80
2023-04-10T01:30:00.136Z,80.3
2023-04-10T01:35:00.132Z,81.3
2023-04-10T01:40:00.174Z,81.9
2023-04-10T01:45:00.119Z,81.8
2023-04-10T01:50:00.111Z,82.1
2023-04-10T01:55:00.161Z,82.3
2023-04-10T02:00:00.262Z,82.6
2023-04-10T02:05:00.293Z,81.9
2023-04-10T02:10:00.107Z,83.4
2023-04-10T02:15:00.159Z,83.5
2023-04-10T02:20:00.148Z,83.8
2023-04-10T02:25:00.123Z,84.8
2023-04-10T02:30:00.143Z,85.2
2023-04-10T02:35:00.153Z,84.8
2023-04-10T02:40:00.137Z,84.3
2023-04-10T02:45:00.149Z,84.6
2023-04-10T02:50:00.148Z,84.4
2023-04-10T02:55:00.129Z,84.5
2023-04-10T03:00:00.172Z,84.7
2023-04-10T03:05:00.242Z,84.3
2023-04-10T03:10:00.154Z,83.9
2023-04-10T03:15:00.148Z,83.2
2023-04-10T03:20:00.142Z,82.7
2023-04-10T03:25:00.154Z,82.3
2023-04-10T03:30:00.143Z,82.2
2023-04-10T03:35:00.125Z,82.7
2023-04-10T03:40:00.132Z,83.1
2023-04-10T03:45:00.146Z,82.7
2023-04-10T03:50:00.155Z,82.9
2023-04-10T03:55:00.177Z,84.2
2023-04-10T04:00:00.154Z,86
2023-04-10T04:05:00.152Z,87.1
2023-04-10T04:10:00.197Z,87.2
2023-04-10T04:15:00.147Z,87.2
2023-04-10T04:20:00.104Z,88.2
2023-04-10T04:25:00.145Z,89.3
2023-04-10T04:30:00.156Z,89.5
2023-04-10T04:35:00.139Z,89.5
2023-04-10T04:40:00.124Z,89.3
2023-04-10T04:45:00.205Z,89.3
2023-04-10T04:50:00.209Z,88.8
2023-04-10T04:55:00.230Z,88.2
2023-04-10T05:00:00.170Z,86.9
2023-04-10T05:05:00.113Z,83.3
2023-04-10T05:10:00.178Z,81
2023-04-10T05:15:00.118Z,78.4
2023-04-10T05:20:00.117Z,76.6
2023-04-10T05:25:00.135Z,74.8
2023-04-10T05:30:00.131Z,72.8
2023-04-10T05:35:00.136Z,70.4
2023-04-10T05:40:00.121Z,70.7
2023-04-10T05:45:00.156Z,66.4
2023-04-10T05:50:00.138Z,54.8
2023-04-10T05:55:00.196Z,51.2
2023-04-10T06:00:00.146Z,48.5
2023-04-10T06:05:00.157Z,48.7
2023-04-10T06:10:00.120Z,47.4
2023-04-10T06:15:00.111Z,47.9
2023-04-10T06:20:00.108Z,44.8
2023-04-10T06:25:00.144Z,43.1
2023-04-10T06:30:00.173Z,43.4
2023-04-10T06:35:00.126Z,42.1
2023-04-10T06:40:00.166Z,43.1
2023-04-10T06:45:00.136Z,43.5
2023-04-10T06:50:00.138Z,41.7
2023-04-10T06:55:00.175Z,41.7
2023-04-10T07:00:00.187Z,41.4
2023-04-10T07:05:00.137Z,41
2023-04-10T07:10:00.132Z,40.6
2023-04-10T07:15:00.145Z,40.8
2023-04-10T07:20:00.209Z,39.2
2023-04-10T07:25:00.135Z,39
2023-04-10T07:30:00.148Z,36
2023-04-10T07:35:00.177Z,35
2023-04-10T07:40:00.115Z,32.8
2023-04-10T07:45:00.131Z,30.2
2023-04-10T07:50:00.132Z,32.1
2023-04-10T07:55:00.187Z,29.7
2023-04-10T08:00:00.165Z,30.3
2023-04-10T08:05:00.177Z,29.9
2023-04-10T08:10:00.129Z,29.8
2023-04-10T08:15:00.232Z,28.4
2023-04-10T08:20:00.137Z,27.6
2023-04-10T08:25:00.151Z,28
2023-04-10T08:30:00.167Z,28.1
2023-04-10T08:35:00.145Z,27.3
2023-04-10T08:40:00.197Z,27.6
2023-04-10T08:45:00.133Z,28.5
2023-04-10T08:50:00.116Z,28.4
2023-04-10T08:55:00.237Z,28.1
2023-04-10T09:00:04.022Z,28.3
2023-04-10T09:05:00.125Z,28.6
2023-04-10T09:10:00.162Z,29
2023-04-10T09:15:00.214Z,29
2023-04-10T09:20:00.135Z,29.1
2023-04-10T09:25:00.165Z,27.5
2023-04-10T09:30:00.156Z,27.3
2023-04-10T09:35:00.139Z,28.5
2023-04-10T09:40:00.141Z,29.4
2023-04-10T09:45:00.126Z,28.7
2023-04-10T09:50:00.169Z,27.7
2023-04-10T09:55:00.160Z,27.7
2023-04-10T10:00:00.204Z,28.1
2023-04-10T10:05:00.275Z,27.7
2023-04-10T10:10:00.164Z,27.7
2023-04-10T11:50:00.189Z,27.7
2023-04-10T11:55:00.166Z,31.2
2023-04-10T12:00:00.162Z,31.5
2023-04-10T12:05:00.182Z,31.5
2023-04-10T12:10:00.180Z,31.8
2023-04-10T12:15:00.115Z,32.8
2023-04-10T12:20:00.157Z,33.5
2023-04-10T12:25:00.120Z,34.1
2023-04-10T12:30:00.206Z,33.9
2023-04-10T12:35:00.125Z,33.5
2023-04-10T12:40:00.129Z,34.7
2023-04-10T12:45:00.134Z,34.8
2023-04-10T12:50:00.132Z,34.8
2023-04-10T12:55:00.077Z,33.6
2023-04-10T13:00:00.162Z,33.1
2023-04-10T13:05:00.100Z,32.6
2023-04-10T13:10:00.128Z,32.5
2023-04-10T13:15:00.132Z,32.3
2023-04-10T13:20:00.164Z,32.4
2023-04-10T13:25:00.125Z,31
2023-04-10T13:30:00.148Z,31.2
2023-04-10T13:35:00.153Z,31
2023-04-10T13:40:00.096Z,31.5
2023-04-10T13:45:00.147Z,31.3
2023-04-10T13:50:00.170Z,30.3
2023-04-10T13:55:00.138Z,30.1
2023-04-10T14:00:00.132Z,29.1
2023-04-10T14:05:00.133Z,28.7
2023-04-10T14:10:00.145Z,28.7
2023-04-10T14:15:00.169Z,28.7
2023-04-10T14:20:00.133Z,28.8
2023-04-10T14:25:09.726Z,29.2
2023-04-10T14:30:00.195Z,28.5
2023-04-10T14:35:00.121Z,27.7
2023-04-10T14:40:00.177Z,28
2023-04-10T14:45:00.112Z,28.2
2023-04-10T14:50:00.153Z,28
2023-04-10T14:55:00.129Z,27.7
2023-04-10T15:00:00.180Z,28
2023-04-10T15:05:00.215Z,28.8
2023-04-10T15:10:00.153Z,28.8
2023-04-10T15:15:00.159Z,28.9
2023-04-10T15:20:00.124Z,28.9
2023-04-10T15:25:00.117Z,29.3
2023-04-10T15:30:00.200Z,29.6
2023-04-10T15:35:00.119Z,29.4
2023-04-10T15:40:00.160Z,29.3
2023-04-10T15:45:00.170Z,29.1
2023-04-10T15:50:00.160Z,29.2
2023-04-10T15:55:00.107Z,28.9
2023-04-10T16:00:00.130Z,28.8
2023-04-10T16:05:00.137Z,28.5
2023-04-10T16:10:00.167Z,28.7
2023-04-10T16:15:00.173Z,29.1
2023-04-10T16:20:00.153Z,29
2023-04-10T16:25:00.155Z,29.4
2023-04-10T16:30:00.204Z,29.6
2023-04-10T16:35:00.151Z,29.8
2023-04-10T16:40:00.113Z,30.2
2023-04-10T16:45:00.138Z,30.6
2023-04-10T16:50:00.265Z,30.9
2023-04-10T16:55:00.103Z,31.2
2023-04-10T17:00:00.175Z,31.6
2023-04-10T17:05:00.131Z,31.9
2023-04-10T17:10:00.242Z,32.4
2023-04-10T17:15:00.151Z,32.6
2023-04-10T17:20:00.126Z,32.9
2023-04-10T17:25:00.177Z,33.5
2023-04-10T17:30:00.206Z,33.9
2023-04-10T17:35:00.123Z,34.3
2023-04-10T17:40:00.149Z,34.4
2023-04-10T17:45:00.160Z,34.4
2023-04-10T17:50:00.135Z,34.7
2023-04-10T17:55:00.128Z,34.9
2023-04-10T18:00:00.161Z,35.3
2023-04-10T18:05:00.146Z,35.6
2023-04-10T18:10:00.174Z,36
2023-04-10T18:15:00.137Z,36.2
2023-04-10T18:20:00.121Z,36.4
2023-04-10T18:25:00.152Z,36.8
2023-04-10T18:30:00.215Z,37
2023-04-10T18:35:00.131Z,37.3
2023-04-10T18:40:06.495Z,37.5
2023-04-10T18:45:00.154Z,37.9
2023-04-10T18:50:00.165Z,38.1
2023-04-10T18:55:00.113Z,38.3
2023-04-10T19:00:00.158Z,38.5
2023-04-10T19:05:00.133Z,38.6
2023-04-10T19:10:00.176Z,38.7
2023-04-10T19:15:00.140Z,39
2023-04-10T19:20:00.152Z,39.2
2023-04-10T19:25:00.130Z,39.4
2023-04-10T19:30:00.199Z,39.6
2023-04-10T19:35:00.124Z,40
2023-04-10T19:40:00.182Z,40.3
2023-04-10T19:45:00.117Z,40.6
2023-04-10T19:50:00.156Z,40.9
2023-04-10T19:55:00.138Z,41.1
2023-04-10T20:00:00.138Z,41.4
2023-04-10T20:05:00.183Z,40.2
2023-04-10T20:10:00.138Z,42.3
2023-04-10T20:15:00.146Z,42.6
2023-04-10T20:20:00.113Z,42.8
2023-04-10T20:25:00.090Z,43
2023-04-10T20:30:00.157Z,43.3
2023-04-10T20:35:00.127Z,43.5
2023-04-10T20:40:00.097Z,44
2023-04-10T20:45:00.123Z,44.2
2023-04-10T20:50:00.122Z,44.5
2023-04-10T20:55:00.139Z,44.8
2023-04-10T21:00:00.141Z,45
2023-04-10T21:05:00.109Z,45.3
2023-04-10T21:10:00.170Z,45.6
2023-04-10T21:15:00.127Z,45.7
2023-04-10T21:20:00.158Z,45.9
2023-04-10T21:25:00.098Z,46.3
2023-04-10T21:30:00.164Z,46.7
2023-04-10T21:35:00.115Z,47.3
2023-04-10T21:40:00.117Z,47.5
2023-04-10T21:45:00.130Z,48.1
2023-04-10T21:50:00.210Z,48.9
2023-04-10T21:55:00.105Z,49.5
2023-04-10T22:00:00.204Z,49.7
2023-04-10T22:05:00.134Z,50.1
2023-04-10T22:10:00.171Z,50.3
2023-04-10T22:15:00.162Z,50.3
2023-04-10T22:20:00.155Z,50.3
2023-04-10T22:25:00.110Z,50.9
2023-04-10T22:30:03.588Z,51.2
2023-04-10T22:35:00.205Z,51.2
2023-04-10T22:40:00.109Z,51
2023-04-10T22:45:00.155Z,50.6
2023-04-10T22:50:00.116Z,50.1
2023-04-10T22:55:00.135Z,50
2023-04-10T23:00:00.808Z,49.5
2023-04-10T23:05:00.145Z,48.7
2023-04-10T23:10:00.154Z,50
2023-04-10T23:15:00.119Z,50
2023-04-10T23:20:00.171Z,50.4
2023-04-10T23:25:00.141Z,50.2
2023-04-10T23:30:00.135Z,50.2
2023-04-10T23:35:00.121Z,49.6
2023-04-10T23:40:00.129Z,48.9
2023-04-10T23:45:00.133Z,48.1
2023-04-10T23:50:00.152Z,48
2023-04-10T23:55:00.121Z,48.2
